createdAt,value
2022-11-17T00:02:20.376Z,24.58
2022-11-17T00:04:47.599Z,24.65
2022-11-17T00:07:15.114Z,26.73
2022-11-17T00:09:42.517Z,23.13
2022-11-17T00:12:32.679Z,24.20
2022-11-17T00:15:00.298Z,27.95
2022-11-17T00:17:29.758Z,26.27
2022-11-17T00:20:17.082Z,26.00
2022-11-17T00:22:44.845Z,26.02
2022-11-17T00:25:12.506Z,24.30
2022-11-17T00:27:40.309Z,22.35
2022-11-17T00:30:30.742Z,27.95
2022-11-17T00:33:22.608Z,26.23
2022-11-17T00:35:51.906Z,27.25
2022-11-17T00:38:19.335Z,30.77
2022-11-17T00:40:46.912Z,26.98
2022-11-17T00:43:14.758Z,26.50
2022-11-17T00:45:42.050Z,26.13
2022-11-17T00:48:09.311Z,25.00
2022-11-17T00:50:38.192Z,26.58
2022-11-17T00:53:05.509Z,28.85
2022-11-17T00:55:33.002Z,28.73
2022-11-17T00:58:00.243Z,26.20
2022-11-17T01:00:27.533Z,25.08
2022-11-17T01:02:55.191Z,28.73
2022-11-17T01:05:22.458Z,31.10
2022-11-17T01:07:49.680Z,29.23
2022-11-17T01:10:17.129Z,30.90
2022-11-17T01:12:45.304Z,30.23
2022-11-17T01:15:12.770Z,28.50
2022-11-17T01:17:40.215Z,28.35
2022-11-17T01:20:08.602Z,27.50
2022-11-17T01:22:37.208Z,27.50
2022-11-17T01:25:05.624Z,27.02
2022-11-17T01:27:38.741Z,25.17
2022-11-17T01:30:06.714Z,28.05
2022-11-17T01:32:34.477Z,27.48
2022-11-17T01:35:01.994Z,30.30
2022-11-17T01:37:29.333Z,30.80
2022-11-17T01:39:56.804Z,33.15
2022-11-17T01:42:25.846Z,29.85
2022-11-17T01:44:56.443Z,31.92
2022-11-17T01:47:39.893Z,30.17
2022-11-17T01:50:21.275Z,31.65
2022-11-17T01:52:49.741Z,28.85
2022-11-17T01:55:18.323Z,28.27
2022-11-17T01:57:51.354Z,28.95
2022-11-17T02:00:18.699Z,29.20
2022-11-17T02:02:46.439Z,29.00
2022-11-17T02:05:18.734Z,32.95
2022-11-17T02:07:46.724Z,30.85
2022-11-17T02:10:14.494Z,27.77
2022-11-17T02:12:41.843Z,31.17
2022-11-17T02:15:09.896Z,26.45
2022-11-17T02:17:41.884Z,30.33
2022-11-17T02:20:14.150Z,30.85
2022-11-17T02:22:53.908Z,29.83
2022-11-17T02:25:34.123Z,31.42
2022-11-17T02:28:19.368Z,29.20
2022-11-17T02:30:58.051Z,29.23
2022-11-17T02:33:55.852Z,32.65
2022-11-17T02:36:36.087Z,34.42
2022-11-17T02:39:23.109Z,29.00
2022-11-17T02:41:56.505Z,31.08
2022-11-17T02:44:37.186Z,28.52
2022-11-17T02:47:04.343Z,30.65
2022-11-17T02:49:36.912Z,29.75
2022-11-17T02:52:05.627Z,27.40
2022-11-17T02:54:33.445Z,28.88
2022-11-17T02:57:00.753Z,25.85
2022-11-17T02:59:35.191Z,27.13
2022-11-17T03:02:05.823Z,27.98
2022-11-17T03:04:42.809Z,30.08
2022-11-17T03:07:20.888Z,29.10
2022-11-17T03:10:27.908Z,29.23
2022-11-17T03:13:07.480Z,30.75
2022-11-17T03:16:09.915Z,31.33
2022-11-17T03:18:39.011Z,34.70
2022-11-17T03:21:18.358Z,33.75
2022-11-17T03:24:25.165Z,32.80
2022-11-17T03:27:12.150Z,37.15
2022-11-17T03:29:42.195Z,31.75
2022-11-17T03:32:10.241Z,34.67
2022-11-17T03:34:42.458Z,35.33
2022-11-17T03:37:12.367Z,34.05
2022-11-17T03:39:48.627Z,29.92
2022-11-17T03:42:20.700Z,31.73
2022-11-17T03:44:51.900Z,29.80
2022-11-17T03:47:20.391Z,28.08
2022-11-17T03:49:54.535Z,29.55
2022-11-17T03:52:25.169Z,31.52
2022-11-17T03:54:55.532Z,27.13
2022-11-17T03:57:40.827Z,33.53
2022-11-17T04:00:16.257Z,32.35
2022-11-17T04:02:51.383Z,36.40
2022-11-17T04:05:18.663Z,38.30
2022-11-17T04:07:53.858Z,35.00
2022-11-17T04:10:55.603Z,48.47
2022-11-17T04:13:41.460Z,37.22
2022-11-17T04:16:08.920Z,45.67
2022-11-17T04:18:37.768Z,44.35
2022-11-17T04:21:05.724Z,49.95
2022-11-17T04:23:33.735Z,39.75
2022-11-17T04:26:20.092Z,41.70
2022-11-17T04:28:49.987Z,62.78
2022-11-17T04:31:22.683Z,41.33
2022-11-17T04:33:54.956Z,51.22
2022-11-17T04:36:25.034Z,37.58
2022-11-17T04:38:54.787Z,34.67
2022-11-17T04:41:42.791Z,35.28
2022-11-17T04:44:11.312Z,39.75
2022-11-17T04:46:40.149Z,39.83
2022-11-17T04:49:08.357Z,36.40
2022-11-17T04:51:36.093Z,40.10
2022-11-17T04:54:04.306Z,34.55
2022-11-17T04:56:40.021Z,39.95
2022-11-17T04:59:08.006Z,41.70
2022-11-17T05:01:36.466Z,36.67
2022-11-17T05:04:06.686Z,32.88
2022-11-17T05:06:43.772Z,37.15
2022-11-17T05:09:16.800Z,38.92
2022-11-17T05:12:09.200Z,40.40
2022-11-17T05:14:36.378Z,38.70
2022-11-17T05:17:10.066Z,36.05
2022-11-17T05:19:40.627Z,37.85
2022-11-17T05:22:27.913Z,36.83
2022-11-17T05:24:58.346Z,45.70
2022-11-17T05:27:26.233Z,37.90
2022-11-17T05:29:53.584Z,38.97
2022-11-17T05:32:21.025Z,40.15
2022-11-17T05:34:52.001Z,42.65
2022-11-17T05:37:30.675Z,42.10
2022-11-17T05:39:58.163Z,42.50
2022-11-17T05:42:25.587Z,45.90
2022-11-17T05:44:53.096Z,41.22
2022-11-17T05:47:20.564Z,42.25
2022-11-17T05:49:51.042Z,39.90
2022-11-17T05:52:18.622Z,44.42
2022-11-17T05:54:46.277Z,36.90
2022-11-17T05:57:21.422Z,37.50
2022-11-17T05:59:55.199Z,42.55
2022-11-17T06:02:29.918Z,37.33
2022-11-17T06:04:58.139Z,34.05
2022-11-17T06:07:27.991Z,35.38
2022-11-17T06:09:59.559Z,39.00
2022-11-17T06:12:26.882Z,39.83
2022-11-17T06:14:54.099Z,43.38
2022-11-17T06:17:28.760Z,39.50
2022-11-17T06:20:01.258Z,42.65
2022-11-17T06:22:30.742Z,38.25
2022-11-17T06:25:02.168Z,44.90
2022-11-17T06:27:32.201Z,43.90
2022-11-17T06:30:03.438Z,50.22
2022-11-17T06:32:32.029Z,52.38
2022-11-17T06:35:00.113Z,42.55
2022-11-17T06:37:27.397Z,42.90
2022-11-17T06:39:54.757Z,42.88
2022-11-17T06:42:42.004Z,40.25
2022-11-17T06:45:09.870Z,42.30
2022-11-17T06:47:37.504Z,42.63
2022-11-17T06:50:05.381Z,39.42
2022-11-17T06:52:36.254Z,42.05
2022-11-17T06:55:04.591Z,40.08
2022-11-17T06:57:32.170Z,39.10
2022-11-17T06:59:59.807Z,37.33
2022-11-17T07:02:27.098Z,43.65
2022-11-17T07:04:54.317Z,45.13
2022-11-17T07:07:21.664Z,49.63
2022-11-17T07:09:49.129Z,38.75
2022-11-17T07:12:16.439Z,57.72
2022-11-17T07:14:48.259Z,45.15
2022-11-17T07:17:15.863Z,47.15
2022-11-17T07:19:43.173Z,38.25
2022-11-17T07:22:11.869Z,39.75
2022-11-17T07:24:39.257Z,33.80
2022-11-17T07:27:12.144Z,39.72
2022-11-17T07:29:39.392Z,37.25
2022-11-17T07:32:17.408Z,41.13
2022-11-17T07:34:51.192Z,38.70
2022-11-17T07:37:18.550Z,37.80
2022-11-17T07:39:47.891Z,40.40
2022-11-17T07:42:18.478Z,42.47
2022-11-17T07:47:34.135Z,36.33
2022-11-17T07:50:06.597Z,40.50
2022-11-17T07:53:03.544Z,39.67
2022-11-17T07:55:31.220Z,35.47
2022-11-17T07:58:00.157Z,36.42
2022-11-17T08:00:30.752Z,44.80
2022-11-17T08:03:04.896Z,42.90
2022-11-17T08:05:42.939Z,47.90
2022-11-17T08:08:13.103Z,48.75
2022-11-17T08:10:43.060Z,48.88
2022-11-17T08:13:11.447Z,43.25
2022-11-17T08:16:02.006Z,47.88
2022-11-17T08:18:51.689Z,47.75
2022-11-17T08:21:20.206Z,46.08
2022-11-17T08:23:51.651Z,49.20
2022-11-17T08:26:25.559Z,50.15
2022-11-17T08:29:00.337Z,48.28
2022-11-17T08:31:46.501Z,50.67
2022-11-17T08:34:15.701Z,48.22
2022-11-17T08:36:45.351Z,51.55
2022-11-17T08:39:17.829Z,53.38
2022-11-17T08:41:45.276Z,52.25
2022-11-17T08:44:13.674Z,52.17
2022-11-17T08:46:41.472Z,54.42
2022-11-17T08:49:38.681Z,52.58
2022-11-17T08:52:08.467Z,46.97
2022-11-17T08:54:37.505Z,42.83
2022-11-17T08:57:04.916Z,37.30
2022-11-17T08:59:35.165Z,42.17
2022-11-17T09:05:18.820Z,35.67
2022-11-17T09:07:47.396Z,38.47
2022-11-17T09:10:27.192Z,40.75
2022-11-17T09:13:02.234Z,40.80
2022-11-17T09:15:33.858Z,33.78
2022-11-17T09:19:16.829Z,36.38
2022-11-17T09:21:55.791Z,42.53
2022-11-17T09:24:24.120Z,41.42
2022-11-17T09:26:59.124Z,38.95
2022-11-17T09:29:33.852Z,43.75
2022-11-17T09:32:02.224Z,58.97
2022-11-17T09:34:32.199Z,50.30
2022-11-17T09:37:02.892Z,34.85
2022-11-17T09:39:34.763Z,36.53
2022-11-17T09:42:03.141Z,40.47
2022-11-17T09:44:59.934Z,42.78
2022-11-17T09:47:42.188Z,34.58
2022-11-17T09:50:30.619Z,41.47
2022-11-17T09:53:28.184Z,39.88
2022-11-17T09:56:04.734Z,38.08
2022-11-17T09:58:56.037Z,36.55
2022-11-17T10:01:23.703Z,34.85
2022-11-17T10:03:53.598Z,35.60
2022-11-17T10:06:23.189Z,33.05
2022-11-17T10:08:53.368Z,32.60
2022-11-17T10:11:33.015Z,35.10
2022-11-17T10:14:10.831Z,39.08
2022-11-17T10:16:56.027Z,31.20
2022-11-17T10:19:26.260Z,29.05
2022-11-17T10:22:20.414Z,28.58
2022-11-17T10:24:58.792Z,31.45
2022-11-17T10:27:53.020Z,24.00
2022-11-17T10:30:26.743Z,21.70
2022-11-17T10:32:59.027Z,22.30
2022-11-17T10:35:33.865Z,17.33
2022-11-17T14:47:39.334Z,11.73
2022-11-17T14:50:12.265Z,10.65
2022-11-17T14:52:43.901Z,11.77
2022-11-17T14:55:13.951Z,10.55
2022-11-17T14:57:41.839Z,14.45
2022-11-17T15:00:13.440Z,10.73
2022-11-17T15:02:45.094Z,11.27
2022-11-17T15:05:13.419Z,9.70
2022-11-17T15:07:41.389Z,13.63
2022-11-17T15:10:10.151Z,17.38
2022-11-17T15:12:37.846Z,22.92
2022-11-17T15:15:06.934Z,21.70
2022-11-17T15:17:35.759Z,12.82
2022-11-17T15:20:04.233Z,17.73
2022-11-17T15:22:31.869Z,14.35
2022-11-17T15:25:00.994Z,15.38
2022-11-17T15:27:29.279Z,14.18
2022-11-17T15:29:56.845Z,11.38
2022-11-17T15:32:24.179Z,10.80
2022-11-17T15:34:51.780Z,12.23
2022-11-17T15:37:19.314Z,12.02
2022-11-17T15:39:46.611Z,10.02
2022-11-17T15:42:14.142Z,12.23
2022-11-17T15:44:41.661Z,11.57
2022-11-17T15:47:09.289Z,13.15
2022-11-17T15:49:36.959Z,16.25
2022-11-17T15:52:04.456Z,17.55
2022-11-17T15:54:31.784Z,18.73
2022-11-17T15:57:02.850Z,16.00
2022-11-17T15:59:31.772Z,15.27
2022-11-17T16:02:00.355Z,16.10
2022-11-17T16:04:29.020Z,14.57
2022-11-17T16:06:58.538Z,14.55
2022-11-17T16:09:26.014Z,14.15
2022-11-17T16:11:53.427Z,16.00
2022-11-17T16:14:22.921Z,11.15
2022-11-17T16:16:50.237Z,15.38
2022-11-17T16:19:17.822Z,17.85
2022-11-17T16:21:46.309Z,17.42
2022-11-17T16:24:13.661Z,18.15
2022-11-17T16:26:41.113Z,17.10
2022-11-17T16:29:08.840Z,15.35
2022-11-17T16:31:40.601Z,15.70
2022-11-17T16:34:12.497Z,15.95
2022-11-17T16:36:41.683Z,11.70
2022-11-17T16:39:11.748Z,16.23
2022-11-17T16:41:41.595Z,13.48
2022-11-17T16:44:13.155Z,13.75
2022-11-17T16:46:45.992Z,6.25
2022-11-17T16:49:15.298Z,4.30
2022-11-17T16:51:53.856Z,4.80
2022-11-17T16:54:21.366Z,3.53
2022-11-17T16:56:49.849Z,3.92
2022-11-17T16:59:17.625Z,2.97
2022-11-17T17:01:47.667Z,2.90
2022-11-17T17:04:16.321Z,3.13
2022-11-17T17:06:44.777Z,3.30
2022-11-17T17:09:14.219Z,4.13
2022-11-17T17:11:45.544Z,2.58
2022-11-17T17:14:15.048Z,3.78
2022-11-17T17:16:43.802Z,2.22
2022-11-17T17:19:12.727Z,3.10
2022-11-17T17:21:41.402Z,2.75
2022-11-17T17:24:12.804Z,3.28
2022-11-17T17:26:40.767Z,2.50
2022-11-17T17:29:11.855Z,2.50
2022-11-17T17:31:41.262Z,4.45
2022-11-17T17:34:10.671Z,3.13
2022-11-17T17:36:38.718Z,3.53
2022-11-17T17:39:06.794Z,3.47
2022-11-17T17:41:38.818Z,4.28
2022-11-17T17:44:08.248Z,4.07
2022-11-17T17:46:38.171Z,3.78
2022-11-17T17:49:06.402Z,4.20
2022-11-17T17:51:40.173Z,3.28
2022-11-17T17:54:07.914Z,4.20
2022-11-17T17:56:36.438Z,2.42
2022-11-17T17:59:03.978Z,4.80
2022-11-17T18:01:37.429Z,2.50
2022-11-17T18:04:05.355Z,1.50
2022-11-17T18:06:40.031Z,2.13
2022-11-17T18:09:21.959Z,1.65
2022-11-17T18:11:52.398Z,4.50
2022-11-17T18:14:24.551Z,4.60
2022-11-17T18:16:54.096Z,4.10
2022-11-17T18:19:21.887Z,3.17
2022-11-17T18:21:49.534Z,4.50
2022-11-17T18:24:17.369Z,3.13
2022-11-17T18:26:44.636Z,3.53
2022-11-17T18:29:15.148Z,4.43
2022-11-17T18:31:49.405Z,3.28
2022-11-17T18:34:22.175Z,2.90
2022-11-17T18:36:51.290Z,3.08
2022-11-17T18:39:19.390Z,3.63
2022-11-17T18:41:48.857Z,4.70
2022-11-17T18:44:21.169Z,4.82
2022-11-17T18:46:48.849Z,3.85
2022-11-17T18:49:17.309Z,4.78
2022-11-17T23:20:29.665Z,16.27
2022-11-17T23:22:58.913Z,13.83
2022-11-17T23:25:26.111Z,14.17
2022-11-17T23:27:53.310Z,18.02
2022-11-17T23:30:20.614Z,14.83
2022-11-17T23:32:47.952Z,13.40
2022-11-17T23:35:15.231Z,15.30
2022-11-17T23:37:43.725Z,16.13
2022-11-17T23:40:11.681Z,17.25
2022-11-17T23:42:43.037Z,14.45
2022-11-17T23:45:12.135Z,14.77
2022-11-17T23:47:40.158Z,16.43
2022-11-17T23:50:09.521Z,16.87
2022-11-17T23:52:36.863Z,17.40
2022-11-17T23:55:04.217Z,15.90
2022-11-17T23:57:32.074Z,17.83
